createdAt,value
2023-04-27T00:00:39.674Z,63.66
2023-04-27T00:03:42.522Z,63.84
2023-04-27T00:06:44.973Z,63.51
2023-04-27T00:09:47.456Z,63.91
2023-04-27T00:12:49.601Z,63.63
2023-04-27T00:15:52.300Z,63.55
2023-04-27T00:18:55.770Z,65.39
2023-04-27T00:22:00.005Z,63.17
2023-04-27T00:25:02.205Z,63.96
2023-04-27T00:28:04.758Z,63.18
2023-04-27T00:31:07.021Z,64.90
2023-04-27T00:34:09.460Z,64.72
2023-04-27T00:37:11.618Z,64.84
2023-04-27T00:40:14.547Z,64.63
2023-04-27T00:43:16.680Z,64.78
2023-04-27T00:46:19.780Z,65.03
2023-04-27T00:49:23.275Z,65.30
2023-04-27T00:52:25.962Z,66.20
2023-04-27T00:55:28.277Z,65.96
2023-04-27T00:58:30.794Z,65.88
2023-04-27T01:01:34.195Z,66.07
2023-04-27T01:04:38.446Z,66.15
2023-04-27T01:07:41.096Z,66.43
2023-04-27T01:10:43.711Z,67.94
2023-04-27T01:13:46.248Z,66.56
2023-04-27T01:16:48.766Z,68.34
2023-04-27T01:19:51.716Z,67.63
2023-04-27T01:22:54.184Z,67.89
2023-04-27T01:25:56.624Z,67.10
2023-04-27T01:28:59.639Z,66.81
2023-04-27T01:32:02.408Z,69.04
2023-04-27T01:35:06.112Z,68.44
2023-04-27T01:38:08.396Z,68.76
2023-04-27T01:41:10.855Z,68.96
2023-04-27T01:44:12.985Z,68.76
2023-04-27T01:47:17.257Z,70.41
2023-04-27T01:50:19.932Z,67.97
2023-04-27T01:53:22.330Z,68.22
2023-04-27T01:56:24.606Z,68.93
2023-04-27T01:59:27.996Z,69.00
2023-04-27T02:02:30.279Z,68.17
2023-04-27T02:05:32.821Z,69.32
2023-04-27T02:08:35.095Z,68.18
2023-04-27T02:11:37.562Z,69.32
2023-04-27T02:14:39.758Z,69.12
2023-04-27T02:17:43.982Z,68.99
2023-04-27T02:20:48.079Z,69.07
2023-04-27T02:23:50.545Z,69.75
2023-04-27T02:26:53.102Z,69.42
2023-04-27T02:29:55.778Z,69.69
2023-04-27T02:33:00.786Z,70.23
2023-04-27T02:36:03.612Z,69.46
2023-04-27T02:39:05.769Z,70.45
2023-04-27T02:42:08.235Z,70.79
2023-04-27T02:45:11.459Z,70.55
2023-04-27T02:48:13.879Z,70.48
2023-04-27T02:51:16.105Z,71.93
2023-04-27T02:54:18.495Z,71.39
2023-04-27T02:57:20.658Z,72.35
2023-04-27T03:00:23.101Z,72.32
2023-04-27T03:03:25.790Z,72.39
2023-04-27T03:06:28.926Z,72.50
2023-04-27T03:09:31.138Z,72.40
2023-04-27T03:12:33.595Z,71.99
2023-04-27T03:15:35.853Z,72.28
2023-04-27T03:18:39.115Z,72.57
2023-04-27T03:21:41.453Z,73.07
2023-04-27T03:24:44.517Z,72.82
2023-04-27T03:27:46.630Z,73.30
2023-04-27T03:30:49.057Z,73.60
2023-04-27T03:33:51.448Z,73.09
2023-04-27T03:36:54.078Z,74.21
2023-04-27T03:39:56.216Z,73.36
2023-04-27T03:42:59.241Z,73.86
2023-04-27T03:46:01.712Z,73.53
2023-04-27T03:49:04.307Z,73.91
2023-04-27T03:52:06.899Z,73.80
2023-04-27T03:55:10.664Z,73.46
2023-04-27T03:58:14.530Z,73.57
2023-04-27T04:01:18.910Z,74.24
2023-04-27T04:04:22.262Z,74.05
2023-04-27T04:07:24.622Z,73.95
2023-04-27T04:10:27.161Z,73.86
2023-04-27T04:13:29.807Z,73.51
2023-04-27T04:16:33.611Z,73.43
2023-04-27T04:19:35.780Z,74.26
2023-04-27T04:22:38.716Z,73.85
2023-04-27T04:25:41.670Z,73.94
2023-04-27T04:28:44.266Z,73.97
2023-04-27T04:31:46.566Z,74.23
2023-04-27T04:34:51.206Z,74.78
2023-04-27T04:37:55.263Z,75.16
2023-04-27T04:40:57.697Z,74.17
2023-04-27T04:44:00.622Z,73.81
2023-04-27T04:47:03.497Z,73.61
2023-04-27T04:50:06.885Z,72.98
2023-04-27T04:53:10.622Z,72.82
2023-04-27T04:56:14.308Z,72.73
2023-04-27T04:59:17.558Z,72.28
2023-04-27T05:02:19.781Z,72.15
2023-04-27T05:05:22.186Z,73.52
2023-04-27T05:08:24.325Z,73.31
2023-04-27T05:11:26.840Z,73.00
2023-04-27T05:14:29.363Z,73.12
2023-04-27T05:17:32.107Z,73.31
2023-04-27T05:20:38.210Z,73.45
2023-04-27T05:23:40.685Z,73.49
2023-04-27T05:26:43.552Z,73.59
2023-04-27T05:29:46.259Z,72.30
2023-04-27T05:32:48.451Z,73.21
2023-04-27T05:35:50.947Z,75.11
2023-04-27T05:38:53.057Z,74.92
2023-04-27T05:41:56.742Z,74.00
2023-04-27T05:44:58.893Z,72.53
2023-04-27T05:48:01.714Z,72.30
2023-04-27T05:51:04.524Z,71.94
2023-04-27T05:54:08.336Z,71.70
2023-04-27T05:57:10.754Z,71.40
2023-04-27T06:00:15.129Z,72.54
2023-04-27T06:03:17.939Z,70.44
2023-04-27T06:06:20.206Z,69.56
2023-04-27T06:09:22.701Z,69.46
2023-04-27T06:12:24.872Z,70.59
2023-04-27T06:15:27.362Z,70.91
2023-04-27T06:18:29.836Z,70.29
2023-04-27T06:21:33.657Z,67.25
2023-04-27T06:24:36.516Z,67.40
2023-04-27T06:27:39.028Z,66.78
2023-04-27T06:30:41.213Z,64.72
2023-04-27T06:33:43.863Z,59.52
2023-04-27T06:36:46.425Z,57.35
2023-04-27T06:39:49.094Z,56.02
2023-04-27T06:42:51.418Z,56.15
2023-04-27T06:45:53.904Z,58.08
2023-04-27T06:48:56.071Z,58.00
2023-04-27T06:51:58.517Z,58.13
2023-04-27T06:55:00.742Z,57.02
2023-04-27T06:58:03.562Z,57.22
2023-04-27T07:01:06.015Z,56.36
2023-04-27T07:04:08.591Z,51.41
2023-04-27T07:07:10.915Z,54.10
2023-04-27T07:10:13.462Z,54.16
2023-04-27T07:13:16.057Z,52.44
2023-04-27T07:16:19.014Z,49.30
2023-04-27T07:19:21.225Z,51.36
2023-04-27T07:22:23.685Z,47.77
2023-04-27T07:25:25.858Z,47.97
2023-04-27T07:28:29.108Z,49.35
2023-04-27T07:31:31.815Z,47.77
2023-04-27T07:34:49.000Z,47.40
2023-04-27T07:37:56.619Z,44.53
2023-04-27T07:41:01.764Z,46.01
2023-04-27T07:44:03.982Z,44.86
2023-04-27T07:47:06.610Z,41.44
2023-04-27T07:50:09.397Z,37.19
2023-04-27T07:53:12.044Z,36.15
2023-04-27T07:56:14.200Z,36.53
2023-04-27T07:59:17.081Z,32.61
2023-04-27T08:02:20.359Z,32.10
2023-04-27T08:05:23.871Z,32.38
2023-04-27T08:08:26.693Z,32.31
2023-04-27T08:11:29.537Z,33.80
2023-04-27T08:14:34.507Z,32.93
2023-04-27T08:17:38.908Z,31.44
2023-04-27T08:20:41.144Z,31.63
2023-04-27T08:23:43.879Z,30.50
2023-04-27T08:26:46.028Z,31.45
2023-04-27T08:29:49.232Z,30.68
2023-04-27T08:32:51.477Z,30.36
2023-04-27T08:35:54.980Z,30.88
2023-04-27T08:38:57.141Z,30.60
2023-04-27T08:41:59.715Z,30.79
2023-04-27T08:45:01.996Z,33.22
2023-04-27T08:48:04.769Z,34.33
2023-04-27T08:51:11.195Z,33.34
2023-04-27T08:54:13.653Z,32.15
2023-04-27T08:57:16.557Z,35.53
2023-04-27T09:00:20.280Z,33.08
2023-04-27T09:03:24.636Z,35.07
2023-04-27T09:06:31.643Z,34.00
2023-04-27T09:09:34.057Z,35.25
2023-04-27T09:12:36.646Z,35.00
2023-04-27T09:15:48.595Z,36.42
2023-04-27T09:18:51.438Z,36.07
2023-04-27T09:22:07.376Z,34.51
2023-04-27T09:25:09.848Z,33.45
2023-04-27T09:28:14.590Z,33.94
2023-04-27T09:31:18.120Z,33.65
2023-04-27T09:34:20.657Z,34.79
2023-04-27T09:37:23.177Z,35.00
2023-04-27T09:40:31.526Z,34.77
2023-04-27T09:43:34.979Z,32.53
2023-04-27T09:46:37.474Z,34.24
2023-04-27T09:49:40.427Z,32.84
2023-04-27T09:52:43.258Z,33.47
2023-04-27T09:55:55.173Z,34.44
2023-04-27T09:59:37.424Z,33.43
2023-04-27T10:03:05.303Z,34.87
2023-04-27T10:06:30.544Z,34.48
2023-04-27T10:18:28.002Z,34.09
2023-04-27T10:21:32.896Z,33.47
2023-04-27T10:24:40.980Z,32.07
2023-04-27T10:27:43.983Z,32.02
2023-04-27T10:30:49.359Z,35.38
2023-04-27T10:33:52.946Z,34.07
2023-04-27T10:37:06.057Z,34.61
2023-04-27T10:40:10.817Z,32.99
2023-04-27T10:43:17.655Z,34.67
2023-04-27T10:46:20.904Z,35.66
2023-04-27T10:49:23.784Z,34.10
2023-04-27T10:52:26.770Z,33.06
2023-04-27T10:55:30.796Z,34.24
2023-04-27T10:58:47.519Z,33.43
2023-04-27T11:01:51.519Z,32.35
2023-04-27T11:04:54.596Z,33.63
2023-04-27T11:08:07.731Z,33.34
2023-04-27T11:11:18.047Z,33.97
2023-04-27T11:14:21.508Z,34.08
2023-04-27T11:17:32.323Z,33.51
2023-04-27T11:20:35.061Z,33.87
2023-04-27T11:23:40.690Z,35.64
2023-04-27T11:26:42.953Z,34.33
2023-04-27T11:29:45.783Z,34.15
2023-04-27T11:32:48.714Z,33.33
2023-04-27T11:35:51.507Z,33.06
2023-04-27T11:38:57.909Z,31.37
2023-04-27T11:42:22.372Z,31.87
2023-04-27T11:45:28.266Z,32.22
2023-04-27T11:48:30.968Z,32.59
2023-04-27T11:51:33.580Z,31.37
2023-04-27T11:54:37.773Z,32.44
2023-04-27T11:57:40.614Z,32.12
2023-04-27T12:00:43.980Z,33.24
2023-04-27T12:03:46.603Z,33.54
2023-04-27T12:06:49.085Z,34.36
2023-04-27T12:09:54.009Z,33.25
2023-04-27T12:12:56.942Z,32.04
2023-04-27T12:16:02.897Z,32.63
2023-04-27T12:19:08.308Z,32.44
2023-04-27T12:22:11.197Z,32.83
2023-04-27T12:25:13.905Z,32.77
2023-04-27T12:28:19.136Z,32.45
2023-04-27T12:31:24.701Z,32.76
2023-04-27T12:34:28.725Z,33.16
2023-04-27T12:37:30.889Z,32.76
2023-04-27T12:40:33.681Z,32.21
2023-04-27T12:43:37.433Z,32.30
2023-04-27T12:46:41.599Z,32.73
2023-04-27T12:49:45.001Z,31.50
2023-04-27T12:52:48.064Z,31.75
2023-04-27T12:55:50.332Z,32.03
2023-04-27T12:58:53.046Z,31.26
2023-04-27T13:01:55.753Z,32.65
2023-04-27T13:04:58.597Z,31.87
2023-04-27T13:08:00.888Z,31.37
2023-04-27T13:11:04.146Z,32.11
2023-04-27T13:14:06.414Z,31.58
2023-04-27T13:17:08.993Z,32.27
2023-04-27T13:20:11.799Z,30.63
2023-04-27T13:23:14.558Z,31.01
2023-04-27T13:26:17.050Z,30.64
2023-04-27T13:29:19.562Z,30.21
2023-04-27T13:32:22.264Z,30.95
2023-04-27T13:35:25.005Z,30.78
2023-04-27T13:38:28.952Z,30.64
2023-04-27T13:41:31.468Z,32.10
2023-04-27T13:44:33.728Z,31.78
2023-04-27T13:47:39.167Z,31.55
2023-04-27T13:50:41.370Z,31.67
2023-04-27T13:53:44.091Z,29.63
2023-04-27T13:56:46.307Z,29.96
2023-04-27T13:59:48.793Z,30.02
2023-04-27T14:02:51.148Z,30.27
2023-04-27T14:05:53.747Z,30.29
2023-04-27T14:08:56.280Z,30.48
2023-04-27T14:11:59.162Z,30.94
2023-04-27T14:15:01.364Z,31.17
2023-04-27T14:18:08.009Z,31.37
2023-04-27T14:21:10.460Z,30.51
2023-04-27T14:24:13.265Z,30.73
2023-04-27T14:27:17.009Z,30.39
2023-04-27T14:30:19.596Z,30.55
2023-04-27T14:33:21.899Z,30.39
2023-04-27T14:36:24.426Z,30.70
2023-04-27T14:39:28.121Z,31.52
2023-04-27T14:42:31.727Z,29.67
2023-04-27T14:45:47.785Z,31.13
2023-04-27T14:48:53.926Z,31.82
2023-04-27T14:51:56.288Z,30.43
2023-04-27T14:54:59.415Z,30.70
2023-04-27T14:58:01.630Z,30.68
2023-04-27T15:01:04.194Z,30.44
2023-04-27T15:04:11.080Z,31.60
2023-04-27T15:07:13.790Z,30.04
2023-04-27T15:10:16.210Z,30.92
2023-04-27T15:13:18.784Z,31.42
2023-04-27T15:16:21.178Z,30.42
2023-04-27T15:19:23.736Z,30.83
2023-04-27T15:22:27.776Z,31.44
2023-04-27T15:25:30.433Z,30.84
2023-04-27T15:28:33.761Z,31.52
2023-04-27T15:31:38.374Z,30.96
2023-04-27T15:34:44.430Z,31.52
2023-04-27T15:37:46.941Z,30.12
2023-04-27T15:40:49.208Z,30.97
2023-04-27T15:43:52.300Z,31.19
2023-04-27T15:46:54.740Z,31.38
2023-04-27T15:49:58.374Z,31.97
2023-04-27T15:53:00.677Z,32.29
2023-04-27T15:56:03.340Z,32.37
2023-04-27T15:59:06.735Z,32.73
2023-04-27T16:02:09.354Z,31.86
2023-04-27T16:05:11.882Z,33.01
2023-04-27T16:08:14.066Z,32.11
2023-04-27T16:11:17.103Z,32.64
2023-04-27T16:14:19.358Z,32.70
2023-04-27T16:17:21.849Z,33.27
2023-04-27T16:20:25.443Z,32.07
2023-04-27T16:23:28.138Z,32.58
2023-04-27T16:26:30.428Z,34.51
2023-04-27T16:29:32.909Z,34.16
2023-04-27T16:32:35.930Z,33.79
2023-04-27T16:35:38.477Z,33.63
2023-04-27T16:38:41.924Z,34.60
2023-04-27T16:41:44.474Z,34.05
2023-04-27T16:44:47.335Z,33.27
2023-04-27T16:47:49.867Z,33.12
2023-04-27T16:50:53.677Z,33.39
2023-04-27T16:53:58.260Z,33.24
2023-04-27T16:57:00.477Z,35.58
2023-04-27T17:00:05.762Z,35.87
2023-04-27T17:03:08.167Z,33.91
2023-04-27T17:06:11.526Z,34.03
2023-04-27T17:09:15.030Z,34.73
2023-04-27T17:12:17.741Z,35.15
2023-04-27T17:15:20.499Z,35.51
2023-04-27T17:18:22.916Z,35.21
2023-04-27T17:21:26.872Z,36.70
2023-04-27T17:24:29.570Z,37.43
2023-04-27T17:27:31.757Z,37.27
2023-04-27T17:30:34.234Z,36.67
2023-04-27T17:33:36.481Z,37.91
2023-04-27T17:36:38.927Z,39.83
2023-04-27T17:39:41.378Z,40.25
2023-04-27T17:42:43.820Z,37.76
2023-04-27T17:45:46.255Z,38.43
2023-04-27T17:48:48.815Z,37.93
2023-04-27T17:51:50.974Z,38.39
2023-04-27T17:54:53.452Z,38.38
2023-04-27T17:57:55.637Z,40.44
2023-04-27T18:00:58.209Z,40.06
2023-04-27T18:04:04.009Z,41.34
2023-04-27T18:07:06.942Z,41.72
2023-04-27T18:10:09.572Z,42.02
2023-04-27T18:13:11.864Z,43.91
2023-04-27T18:16:14.381Z,44.72
2023-04-27T18:19:17.021Z,45.43
2023-04-27T18:22:19.803Z,44.98
2023-04-27T18:25:22.069Z,45.61
2023-04-27T18:28:24.558Z,46.99
2023-04-27T18:31:26.907Z,46.24
2023-04-27T18:34:29.342Z,46.64
2023-04-27T18:37:31.553Z,46.96
2023-04-27T18:40:36.055Z,46.23
2023-04-27T18:43:38.241Z,46.18
2023-04-27T18:46:40.797Z,46.90
2023-04-27T18:49:43.021Z,47.02
2023-04-27T18:52:46.067Z,46.49
2023-04-27T18:55:48.265Z,47.58
2023-04-27T18:58:51.127Z,47.15
2023-04-27T19:01:54.011Z,47.16
2023-04-27T19:05:10.995Z,47.82
2023-04-27T19:08:14.964Z,47.97
2023-04-27T19:11:21.999Z,47.82
2023-04-27T19:14:24.897Z,47.61
2023-04-27T19:17:27.478Z,47.97
2023-04-27T19:20:29.803Z,48.03
2023-04-27T19:23:32.344Z,48.46
2023-04-27T19:26:34.613Z,47.92
2023-04-27T19:29:52.188Z,49.00
2023-04-27T19:32:54.353Z,48.41
2023-04-27T19:35:58.504Z,49.12
2023-04-27T19:39:01.067Z,49.83
2023-04-27T19:42:03.580Z,51.14
2023-04-27T19:45:06.959Z,51.95
2023-04-27T19:48:09.820Z,52.75
2023-04-27T19:51:12.073Z,53.78
2023-04-27T19:54:14.707Z,56.20
2023-04-27T19:57:17.308Z,55.85
2023-04-27T20:00:19.918Z,54.46
2023-04-27T20:03:22.567Z,53.56
2023-04-27T20:06:25.090Z,53.80
2023-04-27T20:09:27.586Z,53.16
2023-04-27T20:12:47.932Z,53.39
2023-04-27T20:15:52.369Z,53.87
2023-04-27T20:18:55.442Z,54.65
2023-04-27T20:21:57.921Z,54.88
2023-04-27T20:25:00.218Z,55.32
2023-04-27T20:28:02.663Z,56.56
2023-04-27T20:31:04.896Z,56.22
2023-04-27T20:34:07.315Z,56.51
2023-04-27T20:37:09.693Z,56.72
2023-04-27T20:40:14.430Z,56.61
2023-04-27T20:43:18.415Z,57.27
2023-04-27T20:46:21.079Z,57.02
2023-04-27T20:49:32.074Z,57.57
2023-04-27T20:52:37.868Z,58.65
2023-04-27T20:55:40.142Z,58.63
2023-04-27T20:58:42.539Z,59.02
2023-04-27T21:01:44.746Z,59.10
2023-04-27T21:04:47.377Z,59.53
2023-04-27T21:07:49.672Z,60.39
2023-04-27T21:10:52.307Z,59.85
2023-04-27T21:13:54.495Z,60.56
2023-04-27T21:16:57.163Z,60.69
2023-04-27T21:19:59.452Z,60.14
2023-04-27T21:23:01.910Z,61.34
2023-04-27T21:26:04.162Z,60.78
2023-04-27T21:29:08.211Z,60.73
2023-04-27T21:32:10.474Z,61.54
2023-04-27T21:35:12.922Z,61.85
2023-04-27T21:38:15.096Z,61.41
2023-04-27T21:41:17.607Z,60.19
2023-04-27T21:44:19.757Z,61.55
2023-04-27T21:47:22.693Z,61.85
2023-04-27T21:50:24.940Z,62.44
2023-04-27T21:53:27.453Z,61.90
2023-04-27T21:56:29.685Z,62.75
2023-04-27T21:59:32.722Z,61.99
2023-04-27T22:02:35.025Z,62.94
2023-04-27T22:05:37.522Z,62.80
2023-04-27T22:08:39.827Z,63.41
2023-04-27T22:11:42.309Z,63.32
2023-04-27T22:14:46.825Z,63.12
2023-04-27T22:17:51.203Z,63.51
2023-04-27T22:20:58.152Z,64.22
2023-04-27T22:24:00.791Z,64.32
2023-04-27T22:27:03.928Z,63.98
2023-04-27T22:30:07.160Z,63.83
2023-04-27T22:33:09.920Z,64.45
2023-04-27T22:36:12.453Z,64.15
2023-04-27T22:39:14.632Z,64.08
2023-04-27T22:42:17.039Z,64.08
2023-04-27T22:45:19.231Z,64.53
2023-04-27T22:48:21.741Z,65.28
2023-04-27T22:51:27.233Z,65.39
2023-04-27T22:54:29.683Z,66.30
2023-04-27T22:57:31.817Z,67.38
2023-04-27T23:00:34.225Z,65.94
2023-04-27T23:03:36.480Z,65.34
2023-04-27T23:06:38.999Z,65.74
2023-04-27T23:09:42.646Z,66.88
2023-04-27T23:12:45.066Z,66.09
2023-04-27T23:15:48.020Z,66.45
2023-04-27T23:18:50.806Z,66.43
2023-04-27T23:21:52.925Z,66.70
2023-04-27T23:24:55.453Z,65.93
2023-04-27T23:27:57.606Z,65.31
2023-04-27T23:31:00.171Z,65.29
2023-04-27T23:34:02.548Z,65.22
2023-04-27T23:37:05.011Z,65.59
2023-04-27T23:40:08.511Z,66.05
2023-04-27T23:43:11.772Z,66.42
2023-04-27T23:46:13.927Z,65.88
2023-04-27T23:49:16.406Z,66.54
2023-04-27T23:52:18.649Z,66.43
2023-04-27T23:55:21.233Z,67.32
2023-04-27T23:58:24.790Z,68.23
